createdAt,value
2019-05-10T00:01:55.322Z,77.87
2019-05-10T00:04:40.428Z,77.54
2019-05-10T00:07:25.912Z,77.20
2019-05-10T00:09:52.312Z,77.35
2019-05-10T00:12:20.690Z,77.42
2019-05-10T00:14:49.203Z,77.35
2019-05-10T00:17:17.880Z,77.46
2019-05-10T00:19:44.833Z,77.48
2019-05-10T00:22:11.740Z,77.46
2019-05-10T00:24:38.603Z,77.66
2019-05-10T00:27:05.248Z,77.68
2019-05-10T00:29:32.046Z,77.37
2019-05-10T00:31:58.720Z,77.35
2019-05-10T00:34:25.317Z,77.16
2019-05-10T00:36:51.895Z,77.26
2019-05-10T00:39:19.569Z,77.30
2019-05-10T00:41:46.412Z,76.91
2019-05-10T00:44:13.177Z,76.92
2019-05-10T00:46:39.877Z,77.01
2019-05-10T00:49:06.624Z,77.01
2019-05-10T00:51:33.151Z,77.00
2019-05-10T00:53:59.713Z,76.91
2019-05-10T00:56:28.063Z,77.07
2019-05-10T00:58:54.709Z,77.18
2019-05-10T01:01:21.864Z,77.27
2019-05-10T01:03:48.600Z,77.37
2019-05-10T01:06:15.322Z,77.40
2019-05-10T01:08:42.070Z,77.84
2019-05-10T01:11:08.923Z,77.30
2019-05-10T01:13:35.370Z,77.03
2019-05-10T01:16:02.022Z,77.35
2019-05-10T01:18:28.561Z,77.10
2019-05-10T01:20:55.507Z,76.97
2019-05-10T01:23:22.218Z,76.76
2019-05-10T01:25:48.962Z,76.65
2019-05-10T01:28:15.509Z,76.41
2019-05-10T01:30:42.306Z,76.42
2019-05-10T01:33:09.142Z,76.42
2019-05-10T01:35:35.802Z,77.36
2019-05-10T01:38:02.614Z,77.99
2019-05-10T01:40:29.162Z,78.78
2019-05-10T01:42:55.922Z,78.96
2019-05-10T01:45:22.667Z,79.33
2019-05-10T01:47:49.183Z,77.89
2019-05-10T01:50:15.825Z,79.04
2019-05-10T01:52:42.343Z,79.34
2019-05-10T01:55:08.988Z,79.61
2019-05-10T01:57:35.865Z,79.71
2019-05-10T02:00:06.117Z,79.94
2019-05-10T02:02:33.265Z,79.94
2019-05-10T02:04:59.917Z,79.78
2019-05-10T02:07:26.541Z,80.01
2019-05-10T02:09:53.165Z,79.91
2019-05-10T02:12:20.568Z,80.00
2019-05-10T02:14:47.207Z,80.39
2019-05-10T02:17:13.846Z,80.63
2019-05-10T02:19:40.383Z,81.00
2019-05-10T02:22:06.945Z,80.62
2019-05-10T02:24:33.426Z,80.53
2019-05-10T02:27:00.050Z,80.47
2019-05-10T02:29:26.564Z,80.65
2019-05-10T02:31:53.166Z,80.60
2019-05-10T02:34:19.654Z,80.20
2019-05-10T02:36:46.186Z,80.07
2019-05-10T02:39:12.854Z,80.08
2019-05-10T02:41:39.579Z,79.61
2019-05-10T02:44:06.344Z,79.75
2019-05-10T02:46:33.106Z,79.52
2019-05-10T02:48:59.947Z,79.44
2019-05-10T02:51:27.190Z,79.41
2019-05-10T02:53:53.866Z,79.25
2019-05-10T02:56:30.215Z,79.21
2019-05-10T02:58:53.842Z,79.07
2019-05-10T03:01:25.949Z,78.86
2019-05-10T03:03:55.758Z,78.87
2019-05-10T03:06:25.141Z,78.80
2019-05-10T03:08:52.937Z,78.70
2019-05-10T03:11:19.678Z,78.91
2019-05-10T03:13:49.915Z,78.84
2019-05-10T03:16:22.909Z,78.82
2019-05-10T03:18:52.752Z,78.77
2019-05-10T03:21:22.327Z,78.81
2019-05-10T03:23:49.734Z,78.71
2019-05-10T03:26:16.605Z,78.89
2019-05-10T03:28:43.805Z,79.09
2019-05-10T03:31:11.459Z,79.29
2019-05-10T03:33:37.986Z,79.60
2019-05-10T03:36:04.664Z,79.73
2019-05-10T03:38:31.372Z,79.85
2019-05-10T03:40:58.156Z,79.55
2019-05-10T03:43:24.716Z,79.26
2019-05-10T03:45:51.301Z,79.23
2019-05-10T03:48:18.142Z,79.13
2019-05-10T03:50:44.734Z,79.14
2019-05-10T03:53:11.387Z,79.05
2019-05-10T03:55:38.031Z,79.02
2019-05-10T03:58:05.054Z,79.22
2019-05-10T04:00:31.953Z,79.40
2019-05-10T04:02:58.707Z,79.57
2019-05-10T04:05:25.158Z,79.93
2019-05-10T04:07:52.030Z,79.88
2019-05-10T04:10:20.970Z,79.94
2019-05-10T04:12:47.498Z,79.88
2019-05-10T04:15:14.398Z,79.97
2019-05-10T04:17:41.130Z,80.29
2019-05-10T04:20:08.609Z,80.35
2019-05-10T04:22:35.253Z,80.02
2019-05-10T04:25:03.383Z,80.23
2019-05-10T04:27:32.861Z,80.19
2019-05-10T04:29:58.709Z,80.13
2019-05-10T04:32:25.637Z,80.22
2019-05-10T04:34:52.300Z,80.33
2019-05-10T04:37:18.856Z,80.26
2019-05-10T04:39:45.711Z,80.61
2019-05-10T04:42:12.302Z,80.69
2019-05-10T04:44:38.922Z,80.62
2019-05-10T04:47:05.681Z,80.56
2019-05-10T04:49:32.456Z,80.49
2019-05-10T04:51:59.160Z,80.05
2019-05-10T04:54:25.874Z,79.73
2019-05-10T04:56:52.555Z,79.58
2019-05-10T04:59:19.472Z,79.92
2019-05-10T05:01:46.172Z,80.07
2019-05-10T05:04:12.879Z,80.20
2019-05-10T05:06:39.374Z,79.61
2019-05-10T05:09:06.145Z,79.52
2019-05-10T05:11:32.820Z,78.96
2019-05-10T05:13:59.543Z,79.62
2019-05-10T05:16:26.267Z,78.77
2019-05-10T05:18:53.001Z,78.60
2019-05-10T05:21:22.461Z,78.63
2019-05-10T05:23:48.911Z,77.31
2019-05-10T05:26:15.546Z,77.19
2019-05-10T05:28:42.289Z,76.99
2019-05-10T05:31:09.037Z,74.93
2019-05-10T05:33:35.649Z,72.42
2019-05-10T05:36:02.639Z,70.63
2019-05-10T05:38:29.525Z,68.85
2019-05-10T05:40:56.105Z,68.40
2019-05-10T05:43:22.766Z,67.67
2019-05-10T05:45:49.422Z,66.87
2019-05-10T05:48:21.184Z,64.09
2019-05-10T05:50:44.681Z,64.90
2019-05-10T05:53:11.449Z,66.17
2019-05-10T05:55:38.064Z,66.08
2019-05-10T05:58:07.053Z,65.51
2019-05-10T06:00:37.741Z,65.08
2019-05-10T06:03:02.010Z,66.01
2019-05-10T06:05:34.311Z,65.24
2019-05-10T06:07:57.163Z,65.76
2019-05-10T06:10:23.688Z,67.48
2019-05-10T06:12:52.716Z,67.36
2019-05-10T06:15:23.009Z,68.10
2019-05-10T06:17:56.170Z,66.91
2019-05-10T06:20:16.148Z,63.76
2019-05-10T06:22:43.953Z,63.77
2019-05-10T06:25:11.989Z,63.73
2019-05-10T06:27:40.861Z,64.33
2019-05-10T06:30:08.116Z,65.33
2019-05-10T06:32:34.751Z,64.02
2019-05-10T06:35:01.675Z,62.70
2019-05-10T06:37:31.308Z,62.60
2019-05-10T06:39:57.214Z,61.11
2019-05-10T06:42:28.879Z,61.47
2019-05-10T06:44:52.180Z,60.76
2019-05-10T06:47:21.819Z,60.68
2019-05-10T06:49:52.042Z,60.83
2019-05-10T06:52:16.707Z,62.09
2019-05-10T06:54:43.376Z,61.41
2019-05-10T06:57:11.148Z,58.67
2019-05-10T06:59:38.775Z,59.67
2019-05-10T07:02:05.576Z,55.67
2019-05-10T07:04:37.818Z,56.29
2019-05-10T07:07:00.995Z,52.20
2019-05-10T07:09:27.984Z,52.75
2019-05-10T07:11:54.603Z,50.86
2019-05-10T07:14:25.647Z,50.87
2019-05-10T07:16:56.418Z,50.86
2019-05-10T07:19:20.267Z,50.01
2019-05-10T07:21:51.022Z,50.54
2019-05-10T07:24:18.183Z,49.08
2019-05-10T07:26:44.274Z,49.69
2019-05-10T07:29:11.127Z,48.02
2019-05-10T07:31:38.066Z,47.77
2019-05-10T07:34:09.819Z,47.33
2019-05-10T07:36:35.398Z,47.54
2019-05-10T07:39:08.392Z,48.81
2019-05-10T07:41:34.192Z,47.98
2019-05-10T07:44:07.504Z,48.44
2019-05-10T07:46:31.359Z,47.24
2019-05-10T07:48:57.994Z,46.13
2019-05-10T07:51:28.856Z,45.77
2019-05-10T07:53:57.121Z,46.04
2019-05-10T07:56:22.055Z,44.26
2019-05-10T07:58:48.718Z,47.41
2019-05-10T08:01:15.404Z,46.90
2019-05-10T08:03:48.158Z,46.17
2019-05-10T08:06:10.602Z,46.17
2019-05-10T08:08:39.262Z,45.18
2019-05-10T08:11:08.442Z,45.66
2019-05-10T08:13:35.290Z,45.04
2019-05-10T08:16:05.530Z,44.14
2019-05-10T08:18:32.228Z,42.91
2019-05-10T08:21:02.439Z,43.49
2019-05-10T08:23:28.159Z,43.89
2019-05-10T08:25:55.180Z,44.25
2019-05-10T08:28:22.841Z,44.51
2019-05-10T08:30:53.655Z,44.60
2019-05-10T08:33:18.980Z,44.25
2019-05-10T08:35:46.538Z,44.25
2019-05-10T08:38:13.470Z,44.53
2019-05-10T08:40:42.547Z,43.84
2019-05-10T08:43:13.988Z,43.65
2019-05-10T08:45:44.084Z,42.61
2019-05-10T08:48:07.443Z,42.61
2019-05-10T08:50:48.802Z,43.37
2019-05-10T08:53:10.462Z,45.10
2019-05-10T08:55:32.065Z,44.75
2019-05-10T08:57:58.469Z,43.06
2019-05-10T09:00:41.590Z,43.90
2019-05-10T09:02:54.023Z,43.94
2019-05-10T09:05:28.609Z,44.41
2019-05-10T09:07:52.137Z,45.84
2019-05-10T09:10:18.892Z,46.14
2019-05-10T09:12:53.682Z,46.64
2019-05-10T09:15:14.710Z,47.96
2019-05-10T09:17:42.825Z,49.14
2019-05-10T09:20:11.955Z,47.85
2019-05-10T09:22:39.362Z,47.21
2019-05-10T09:25:07.552Z,48.44
2019-05-10T09:27:34.325Z,48.70
2019-05-10T09:30:02.919Z,48.60
2019-05-10T09:32:33.331Z,48.02
2019-05-10T09:35:06.911Z,47.22
2019-05-10T09:37:28.249Z,46.07
2019-05-10T09:40:05.567Z,43.97
2019-05-10T09:42:31.890Z,42.57
2019-05-10T09:44:53.916Z,43.16
2019-05-10T09:47:22.219Z,42.51
2019-05-10T09:49:54.199Z,41.40
2019-05-10T09:52:18.870Z,41.18
2019-05-10T09:54:49.199Z,41.29
2019-05-10T09:57:14.644Z,39.92
2019-05-10T09:59:41.477Z,40.05
2019-05-10T10:02:14.628Z,40.61
2019-05-10T10:04:37.265Z,40.95
2019-05-10T10:07:04.259Z,40.94
2019-05-10T10:09:37.355Z,40.86
2019-05-10T10:12:03.243Z,42.37
2019-05-10T10:14:38.179Z,41.02
2019-05-10T10:17:02.956Z,39.92
2019-05-10T10:19:27.845Z,40.18
2019-05-10T10:21:54.778Z,39.04
2019-05-10T10:24:21.454Z,40.22
2019-05-10T10:26:48.354Z,39.54
2019-05-10T10:29:17.321Z,39.77
2019-05-10T10:31:52.986Z,38.90
2019-05-10T10:34:12.816Z,39.26
2019-05-10T10:36:43.777Z,41.48
2019-05-10T10:39:08.275Z,39.19
2019-05-10T10:41:35.360Z,37.99
2019-05-10T10:44:02.057Z,37.85
2019-05-10T10:46:29.072Z,38.64
2019-05-10T10:48:55.904Z,38.86
2019-05-10T10:51:26.676Z,39.53
2019-05-10T10:53:54.512Z,40.44
2019-05-10T10:56:19.874Z,41.13
2019-05-10T10:58:49.733Z,39.81
2019-05-10T11:01:21.511Z,40.16
2019-05-10T11:03:48.897Z,39.16
2019-05-10T11:06:16.932Z,38.58
2019-05-10T11:08:44.991Z,38.43
2019-05-10T11:11:11.700Z,38.35
2019-05-10T11:13:43.786Z,38.06
2019-05-10T11:16:10.878Z,37.69
2019-05-10T11:18:35.054Z,36.30
2019-05-10T11:21:02.157Z,35.76
2019-05-10T11:23:34.003Z,36.41
2019-05-10T11:25:57.763Z,36.31
2019-05-10T11:28:24.261Z,36.27
2019-05-10T11:30:51.260Z,35.92
2019-05-10T11:41:42.158Z,34.82
2019-05-10T11:44:11.929Z,31.50
2019-05-10T11:46:37.601Z,33.17
2019-05-10T11:49:04.499Z,32.96
2019-05-10T11:51:31.693Z,35.23
2019-05-10T11:53:59.766Z,33.93
2019-05-10T11:56:27.739Z,31.11
2019-05-10T11:58:55.936Z,31.11
2019-05-10T12:01:22.672Z,31.28
2019-05-10T12:03:49.604Z,34.55
2019-05-10T12:06:16.557Z,34.55
2019-05-10T12:08:43.102Z,32.63
2019-05-10T12:11:27.196Z,33.72
2019-05-10T12:13:38.682Z,34.91
2019-05-10T12:16:06.605Z,35.02
2019-05-10T12:18:36.069Z,35.29
2019-05-10T12:21:09.329Z,33.90
2019-05-10T12:23:31.691Z,35.64
2019-05-10T12:27:12.999Z,34.99
2019-05-10T12:28:29.012Z,35.24
2019-05-10T12:30:55.813Z,35.77
2019-05-10T12:33:25.905Z,35.30
2019-05-10T12:35:51.301Z,35.50
2019-05-10T12:38:18.312Z,35.33
2019-05-10T12:40:46.472Z,35.68
2019-05-10T12:43:13.139Z,34.46
2019-05-10T12:45:41.798Z,36.26
2019-05-10T12:48:08.116Z,37.47
2019-05-10T12:50:34.749Z,37.44
2019-05-10T12:53:08.365Z,36.80
2019-05-10T12:55:30.177Z,37.94
2019-05-10T12:57:56.952Z,36.93
2019-05-10T13:00:23.658Z,35.78
2019-05-10T13:02:52.004Z,35.48
2019-05-10T13:05:18.865Z,35.11
2019-05-10T13:07:45.679Z,34.74
2019-05-10T13:10:12.691Z,35.67
2019-05-10T13:12:44.295Z,35.85
2019-05-10T13:15:08.906Z,37.54
2019-05-10T13:17:35.484Z,38.33
2019-05-10T13:20:05.852Z,38.78
2019-05-10T13:22:37.224Z,38.83
2019-05-10T13:25:01.068Z,38.27
2019-05-10T13:27:27.934Z,39.14
2019-05-10T13:29:54.577Z,39.27
2019-05-10T13:32:22.405Z,40.42
2019-05-10T13:34:49.482Z,41.20
2019-05-10T13:37:23.289Z,42.19
2019-05-10T13:39:46.418Z,41.18
2019-05-10T13:42:13.013Z,42.62
2019-05-10T13:44:43.021Z,42.20
2019-05-10T13:47:08.608Z,42.21
2019-05-10T13:49:35.508Z,40.98
2019-05-10T13:52:02.438Z,39.65
2019-05-10T13:54:31.292Z,41.35
2019-05-10T13:56:58.115Z,39.58
2019-05-10T13:59:25.092Z,40.33
2019-05-10T14:01:52.022Z,40.00
2019-05-10T14:04:18.695Z,41.15
2019-05-10T14:06:45.356Z,40.82
2019-05-10T14:09:11.875Z,39.61
2019-05-10T14:11:40.500Z,39.39
2019-05-10T14:14:07.813Z,39.06
2019-05-10T14:16:34.362Z,39.21
2019-05-10T14:19:00.897Z,38.75
2019-05-10T14:21:27.496Z,39.74
2019-05-10T14:23:56.808Z,38.66
2019-05-10T14:26:24.128Z,39.49
2019-05-10T14:28:53.117Z,42.38
2019-05-10T14:31:20.108Z,43.92
2019-05-10T14:33:49.767Z,45.23
2019-05-10T14:36:15.008Z,46.94
2019-05-10T14:38:41.580Z,47.77
2019-05-10T14:41:10.711Z,48.19
2019-05-10T14:43:37.135Z,47.50
2019-05-10T14:46:03.939Z,48.70
2019-05-10T14:48:34.765Z,49.28
2019-05-10T14:51:02.910Z,50.25
2019-05-10T14:53:28.493Z,50.61
2019-05-10T14:55:55.898Z,49.24
2019-05-10T14:58:23.447Z,49.95
2019-05-10T15:00:50.393Z,48.66
2019-05-10T15:03:16.959Z,48.88
2019-05-10T15:05:43.557Z,47.41
2019-05-10T15:08:10.719Z,46.92
2019-05-10T15:10:39.374Z,46.86
2019-05-10T15:13:05.963Z,47.63
2019-05-10T15:15:37.324Z,48.44
2019-05-10T15:18:03.425Z,49.05
2019-05-10T15:20:30.235Z,49.68
2019-05-10T15:22:57.115Z,49.78
2019-05-10T15:25:23.666Z,50.31
2019-05-10T15:27:54.674Z,50.65
2019-05-10T15:30:19.487Z,50.55
2019-05-10T15:32:47.898Z,51.33
2019-05-10T15:35:14.629Z,50.63
2019-05-10T15:37:46.323Z,50.75
2019-05-10T15:40:13.211Z,50.45
2019-05-10T15:42:39.909Z,49.79
2019-05-10T15:45:12.125Z,50.34
2019-05-10T15:47:50.101Z,50.33
2019-05-10T15:50:06.091Z,52.20
2019-05-10T15:52:32.811Z,52.22
2019-05-10T15:54:59.794Z,51.95
2019-05-10T15:57:26.292Z,52.18
2019-05-10T15:59:56.453Z,53.05
2019-05-10T16:02:21.715Z,53.50
2019-05-10T16:04:48.401Z,53.97
2019-05-10T16:07:16.617Z,53.99
2019-05-10T16:09:44.543Z,54.27
2019-05-10T16:12:11.369Z,54.37
2019-05-10T16:14:39.703Z,55.45
2019-05-10T16:17:10.266Z,54.91
2019-05-10T16:19:35.700Z,55.13
2019-05-10T16:22:05.747Z,56.10
2019-05-10T16:24:32.341Z,55.84
2019-05-10T16:27:01.849Z,56.05
2019-05-10T16:29:28.534Z,56.41
2019-05-10T16:31:55.040Z,56.48
2019-05-10T16:34:26.431Z,56.74
2019-05-10T16:36:50.451Z,57.35
2019-05-10T16:39:17.211Z,57.74
2019-05-10T16:41:44.046Z,58.20
2019-05-10T16:44:10.648Z,59.10
2019-05-10T16:46:37.449Z,59.64
2019-05-10T16:49:10.151Z,60.44
2019-05-10T16:51:33.171Z,60.72
2019-05-10T16:53:59.763Z,61.53
2019-05-10T16:56:28.171Z,62.12
2019-05-10T16:58:55.082Z,62.92
2019-05-10T17:01:27.527Z,63.07
2019-05-10T17:03:59.860Z,63.42
2019-05-10T17:06:21.115Z,63.63
2019-05-10T17:08:47.794Z,64.54
2019-05-10T17:11:14.494Z,65.42
2019-05-10T17:13:43.096Z,65.45
2019-05-10T17:16:11.551Z,65.52
2019-05-10T17:18:38.801Z,65.54
2019-05-10T17:21:05.631Z,65.36
2019-05-10T17:23:32.464Z,65.17
2019-05-10T17:26:00.515Z,65.00
2019-05-10T17:28:29.586Z,64.75
2019-05-10T17:30:59.820Z,64.36
2019-05-10T17:33:25.827Z,64.72
2019-05-10T17:36:07.208Z,64.34
2019-05-10T17:38:21.044Z,64.41
2019-05-10T17:40:50.028Z,64.34
2019-05-10T17:43:20.591Z,64.58
2019-05-10T17:45:45.629Z,64.39
2019-05-10T17:48:12.182Z,63.93
2019-05-10T17:50:38.732Z,64.21
2019-05-10T17:53:05.323Z,64.74
2019-05-10T17:55:31.947Z,65.00
2019-05-10T17:57:58.727Z,64.89
2019-05-10T18:00:25.843Z,65.15
2019-05-10T18:02:52.530Z,65.39
2019-05-10T18:05:19.359Z,65.50
2019-05-10T18:07:46.462Z,65.53
2019-05-10T18:10:13.311Z,65.84
2019-05-10T18:12:40.682Z,65.98
2019-05-10T18:15:09.259Z,66.19
2019-05-10T18:17:36.085Z,65.91
2019-05-10T18:20:05.646Z,66.06
2019-05-10T18:22:42.242Z,66.23
2019-05-10T18:25:01.857Z,66.45
2019-05-10T18:27:29.882Z,66.66
2019-05-10T18:29:56.713Z,66.71
2019-05-10T18:32:23.292Z,66.88
2019-05-10T18:34:50.065Z,67.28
2019-05-10T18:37:21.834Z,66.96
2019-05-10T18:39:47.228Z,67.17
2019-05-10T18:42:18.765Z,67.08
2019-05-10T18:44:45.817Z,66.85
2019-05-10T18:47:13.021Z,67.34
2019-05-10T18:49:39.868Z,67.48
2019-05-10T18:52:06.752Z,67.54
2019-05-10T18:54:33.705Z,67.34
2019-05-10T18:57:04.791Z,67.66
2019-05-10T18:59:31.610Z,67.78
2019-05-10T19:02:00.566Z,67.70
2019-05-10T19:04:29.932Z,67.52
2019-05-10T19:07:09.334Z,67.44
2019-05-10T19:09:25.443Z,67.35
2019-05-10T19:11:52.259Z,67.35
2019-05-10T19:14:23.895Z,67.48
2019-05-10T19:16:47.989Z,67.60
2019-05-10T19:19:16.442Z,67.71
2019-05-10T19:21:43.195Z,67.90
2019-05-10T19:24:09.987Z,68.27
2019-05-10T19:26:37.018Z,68.56
2019-05-10T19:29:05.237Z,68.77
2019-05-10T19:31:38.219Z,68.45
2019-05-10T19:37:00.428Z,68.40
2019-05-10T19:39:28.652Z,68.48
2019-05-10T19:42:03.074Z,68.70
2019-05-10T19:44:23.913Z,68.74
2019-05-10T19:46:50.564Z,68.83
2019-05-10T19:56:11.075Z,69.05
2019-05-10T19:58:37.945Z,69.19
2019-05-10T20:01:04.767Z,69.38
2019-05-10T20:03:32.013Z,69.29
2019-05-10T20:05:58.870Z,69.51
2019-05-10T20:08:25.426Z,69.43
2019-05-10T20:10:52.108Z,69.45
2019-05-10T20:13:19.045Z,69.53
2019-05-10T20:15:45.608Z,69.57
2019-05-10T20:18:12.390Z,69.46
2019-05-10T20:20:39.090Z,69.46
2019-05-10T20:23:05.625Z,69.20
2019-05-10T20:25:32.236Z,69.21
2019-05-10T20:28:10.206Z,69.12
2019-05-10T20:53:16.164Z,70.08
2019-05-10T20:55:43.076Z,70.29
2019-05-10T20:58:30.335Z,70.53
2019-05-10T21:00:57.202Z,70.66
2019-05-10T21:03:23.885Z,71.39
2019-05-10T21:05:50.703Z,72.01
2019-05-10T21:08:17.642Z,72.17
2019-05-10T21:10:44.351Z,72.51
2019-05-10T21:16:10.205Z,72.50
2019-05-10T21:18:36.928Z,72.66
2019-05-10T21:21:03.690Z,72.64
2019-05-10T21:23:30.309Z,72.67
2019-05-10T21:25:56.967Z,72.64
2019-05-10T21:28:52.642Z,72.44
2019-05-10T21:31:19.319Z,72.32
2019-05-10T21:37:13.330Z,72.08
2019-05-10T21:40:00.699Z,71.90
2019-05-10T21:42:27.414Z,71.78
2019-05-10T21:44:54.215Z,71.74
2019-05-10T21:47:20.822Z,71.67
2019-05-10T21:52:30.731Z,71.47
2019-05-10T21:54:57.263Z,71.59
2019-05-10T21:57:24.046Z,71.63
2019-05-10T21:59:50.958Z,71.67
2019-05-10T22:02:17.887Z,71.57
2019-05-10T22:04:47.821Z,71.60
2019-05-10T22:07:13.061Z,71.57
2019-05-10T22:09:39.823Z,71.46
2019-05-10T22:12:07.128Z,71.21
2019-05-10T22:14:33.842Z,70.98
2019-05-10T22:17:01.331Z,70.86
2019-05-10T22:19:27.958Z,70.87
2019-05-10T22:21:55.436Z,71.19
2019-05-10T22:24:22.393Z,71.54
2019-05-10T22:26:49.368Z,71.40
2019-05-10T22:29:16.037Z,71.25
2019-05-10T22:31:42.644Z,71.37
2019-05-10T22:34:09.272Z,70.94
2019-05-10T22:36:35.893Z,71.04
2019-05-10T22:39:07.379Z,70.95
2019-05-10T22:41:33.572Z,71.02
2019-05-10T22:44:02.791Z,71.12
2019-05-10T22:46:29.573Z,71.26
2019-05-10T22:48:56.083Z,71.28
2019-05-10T22:51:22.774Z,71.39
2019-05-10T22:53:59.646Z,71.41
2019-05-10T22:56:17.785Z,71.69
2019-05-10T22:58:44.258Z,72.55
2019-05-10T23:01:11.047Z,72.77
2019-05-10T23:03:37.675Z,73.16
2019-05-10T23:06:04.458Z,73.08
2019-05-10T23:11:21.182Z,72.37
2019-05-10T23:13:47.752Z,72.50
2019-05-10T23:16:14.279Z,72.70
2019-05-10T23:18:40.754Z,72.37
2019-05-10T23:21:07.526Z,72.59
2019-05-10T23:23:34.161Z,72.82
2019-05-10T23:26:01.235Z,72.83
2019-05-10T23:28:27.663Z,72.11
2019-05-10T23:30:54.296Z,72.01
2019-05-10T23:33:20.855Z,71.95
2019-05-10T23:35:57.756Z,72.04
2019-05-10T23:38:24.291Z,71.69
2019-05-10T23:40:50.798Z,72.00
2019-05-10T23:43:17.387Z,71.86
2019-05-10T23:45:44.007Z,71.98
2019-05-10T23:48:10.900Z,71.79
2019-05-10T23:50:37.467Z,71.92
2019-05-10T23:53:04.156Z,71.53
2019-05-10T23:55:30.678Z,71.17
2019-05-10T23:57:57.137Z,71.17
